createdAt,value
2018-01-06T00:00:16.451Z,93.40
2018-01-06T00:02:44.678Z,93.30
2018-01-06T00:05:12.135Z,93.30
2018-01-06T00:07:40.318Z,92.80
2018-01-06T00:10:07.732Z,92.80
2018-01-06T00:12:35.967Z,91.50
2018-01-06T00:15:03.382Z,91.40
2018-01-06T00:17:30.843Z,91.70
2018-01-06T00:19:59.109Z,91.30
2018-01-06T00:22:26.552Z,91.70
2018-01-06T00:24:54.014Z,91.20
2018-01-06T00:27:21.454Z,91.70
2018-01-06T00:29:48.910Z,91.30
2018-01-06T00:32:17.130Z,91.30
2018-01-06T00:34:44.532Z,91.30
2018-01-06T00:37:11.998Z,92.50
2018-01-06T00:39:39.453Z,92.70
2018-01-06T00:42:06.921Z,92.90
2018-01-06T00:44:35.879Z,92.70
2018-01-06T00:47:03.330Z,92.70
2018-01-06T00:49:30.778Z,92.90
2018-01-06T00:51:59.747Z,93.40
2018-01-06T00:54:27.143Z,93.30
2018-01-06T00:56:54.593Z,93.50
2018-01-06T00:59:21.994Z,93.70
2018-01-06T01:01:50.238Z,94.00
2018-01-06T01:04:17.614Z,94.00
2018-01-06T01:06:45.048Z,94.00
2018-01-06T01:09:12.468Z,94.10
2018-01-06T01:11:39.880Z,94.10
2018-01-06T01:14:07.324Z,94.10
2018-01-06T01:16:34.771Z,94.30
2018-01-06T01:19:02.191Z,94.40
2018-01-06T01:21:29.635Z,94.40
2018-01-06T01:23:57.068Z,94.50
2018-01-06T01:26:24.484Z,94.50
2018-01-06T01:28:51.900Z,94.20
2018-01-06T01:31:20.142Z,94.30
2018-01-06T01:33:47.557Z,94.30
2018-01-06T01:36:14.980Z,94.30
2018-01-06T01:38:42.413Z,94.40
2018-01-06T01:41:09.834Z,94.30
2018-01-06T01:43:38.049Z,94.00
2018-01-06T01:46:05.471Z,93.90
2018-01-06T01:48:32.898Z,94.00
2018-01-06T01:51:00.312Z,94.20
2018-01-06T01:53:28.503Z,94.20
2018-01-06T01:55:55.919Z,94.20
2018-01-06T01:58:24.104Z,94.20
2018-01-06T02:00:51.524Z,94.20
2018-01-06T02:03:18.943Z,94.30
2018-01-06T02:05:46.359Z,94.20
2018-01-06T02:08:13.796Z,94.30
2018-01-06T02:10:41.244Z,94.40
2018-01-06T02:13:08.660Z,94.50
2018-01-06T02:15:36.076Z,94.50
2018-01-06T02:18:03.506Z,94.60
2018-01-06T02:20:31.679Z,94.60
2018-01-06T02:22:59.092Z,94.60
2018-01-06T02:25:26.512Z,94.40
2018-01-06T02:27:53.927Z,94.30
2018-01-06T02:30:21.352Z,94.40
2018-01-06T02:32:48.767Z,94.50
2018-01-06T02:35:16.955Z,94.40
2018-01-06T02:37:44.363Z,94.40
2018-01-06T02:40:12.568Z,94.50
2018-01-06T02:42:39.995Z,94.50
2018-01-06T02:45:07.407Z,94.50
2018-01-06T02:47:36.404Z,94.60
2018-01-06T02:50:03.842Z,94.60
2018-01-06T02:52:32.020Z,94.80
2018-01-06T02:54:59.445Z,94.70
2018-01-06T02:57:26.879Z,94.80
2018-01-06T02:59:55.064Z,95.00
2018-01-06T03:02:22.488Z,94.90
2018-01-06T03:04:49.922Z,95.00
2018-01-06T03:07:18.131Z,95.00
2018-01-06T03:09:45.580Z,95.00
2018-01-06T03:12:13.003Z,94.90
2018-01-06T03:14:40.429Z,95.00
2018-01-06T03:17:07.848Z,95.00
2018-01-06T03:19:35.282Z,94.90
2018-01-06T03:22:03.460Z,94.80
2018-01-06T03:24:30.896Z,94.80
2018-01-06T03:26:58.331Z,94.80
2018-01-06T03:29:25.765Z,94.90
2018-01-06T03:31:53.964Z,94.80
2018-01-06T03:34:21.392Z,94.80
2018-01-06T03:36:48.811Z,94.80
2018-01-06T03:39:16.246Z,94.80
2018-01-06T03:41:44.431Z,95.00
2018-01-06T03:44:11.860Z,95.00
2018-01-06T03:46:39.300Z,94.90
2018-01-06T03:49:06.723Z,95.00
2018-01-06T03:51:34.948Z,95.30
2018-01-06T03:54:02.377Z,95.30
2018-01-06T03:56:29.810Z,95.40
2018-01-06T03:58:57.272Z,95.30
2018-01-06T04:01:24.731Z,95.30
2018-01-06T04:03:52.128Z,95.40
2018-01-06T04:06:19.551Z,95.40
2018-01-06T04:08:46.985Z,95.50
2018-01-06T04:11:15.160Z,95.70
2018-01-06T04:13:42.587Z,95.70
2018-01-06T04:16:10.091Z,95.80
2018-01-06T04:18:37.503Z,95.80
2018-01-06T04:21:04.928Z,95.80
2018-01-06T04:23:32.400Z,95.70
2018-01-06T04:25:59.824Z,95.70
2018-01-06T04:28:27.260Z,95.70
2018-01-06T04:30:54.676Z,95.60
2018-01-06T04:33:22.860Z,95.60
2018-01-06T04:35:50.298Z,95.60
2018-01-06T04:38:17.727Z,95.70
2018-01-06T04:40:45.147Z,95.90
2018-01-06T04:43:13.340Z,96.20
2018-01-06T04:45:40.759Z,96.20
2018-01-06T04:48:08.944Z,96.50
2018-01-06T04:50:36.367Z,96.50
2018-01-06T04:53:03.836Z,97.30
2018-01-06T04:55:31.276Z,97.40
2018-01-06T04:57:58.712Z,97.50
2018-01-06T05:00:26.131Z,97.80
2018-01-06T05:02:53.555Z,97.90
2018-01-06T05:05:21.735Z,98.30
2018-01-06T05:07:49.172Z,98.30
2018-01-06T05:10:16.608Z,98.50
2018-01-06T05:12:44.827Z,98.40
2018-01-06T05:15:12.260Z,98.40
2018-01-06T05:17:39.679Z,98.30
2018-01-06T05:20:07.108Z,98.10
2018-01-06T05:22:34.542Z,98.20
2018-01-06T05:25:02.020Z,98.30
2018-01-06T05:27:29.450Z,98.40
2018-01-06T05:29:56.891Z,98.20
2018-01-06T05:32:24.319Z,98.20
2018-01-06T05:34:51.756Z,98.30
2018-01-06T05:37:19.179Z,98.30
2018-01-06T05:39:47.372Z,98.30
2018-01-06T05:42:14.808Z,98.30
2018-01-06T05:44:42.277Z,98.30
2018-01-06T05:47:09.713Z,98.30
2018-01-06T05:49:37.136Z,97.60
2018-01-06T05:52:04.616Z,96.90
2018-01-06T05:54:32.054Z,96.90
2018-01-06T05:56:59.476Z,96.90
2018-01-06T05:59:26.899Z,97.20
2018-01-06T06:01:54.328Z,96.90
2018-01-06T06:04:21.747Z,96.90
2018-01-06T06:06:49.944Z,97.10
2018-01-06T06:09:17.368Z,97.10
2018-01-06T06:11:44.792Z,97.20
2018-01-06T06:14:12.992Z,97.20
2018-01-06T06:16:40.412Z,97.10
2018-01-06T06:19:07.887Z,97.20
2018-01-06T06:21:35.315Z,97.20
2018-01-06T06:24:02.732Z,98.70
2018-01-06T06:26:30.156Z,98.70
2018-01-06T06:28:58.340Z,98.70
2018-01-06T06:31:25.783Z,98.80
2018-01-06T06:33:53.213Z,98.60
2018-01-06T06:36:21.405Z,98.30
2018-01-06T06:38:48.860Z,98.30
2018-01-06T06:41:16.301Z,98.40
2018-01-06T06:43:43.743Z,98.40
2018-01-06T06:46:11.164Z,96.90
2018-01-06T06:48:38.631Z,96.70
2018-01-06T06:51:06.063Z,96.70
2018-01-06T06:53:33.491Z,96.30
2018-01-06T06:56:00.942Z,96.30
2018-01-06T06:58:28.355Z,96.40
2018-01-06T07:00:55.780Z,96.50
2018-01-06T07:03:23.972Z,96.70
2018-01-06T07:05:51.400Z,96.60
2018-01-06T07:08:18.838Z,96.80
2018-01-06T07:10:46.252Z,96.80
2018-01-06T07:13:14.447Z,96.90
2018-01-06T07:15:41.879Z,96.80
2018-01-06T07:18:09.312Z,96.90
2018-01-06T07:20:36.808Z,97.00
2018-01-06T07:23:04.340Z,96.80
2018-01-06T07:25:31.775Z,96.50
2018-01-06T07:27:59.204Z,96.40
2018-01-06T07:30:26.626Z,96.50
2018-01-06T07:32:54.118Z,96.50
2018-01-06T07:35:21.535Z,96.30
2018-01-06T07:37:48.956Z,96.30
2018-01-06T07:40:16.436Z,96.50
2018-01-06T07:42:43.855Z,96.50
2018-01-06T07:45:11.275Z,96.60
2018-01-06T07:47:38.699Z,96.70
2018-01-06T07:50:06.888Z,96.50
2018-01-06T07:52:34.315Z,96.50
2018-01-06T07:55:01.747Z,96.60
2018-01-06T07:57:29.937Z,96.50
2018-01-06T07:59:57.378Z,96.50
2018-01-06T08:02:24.803Z,96.30
2018-01-06T08:04:52.241Z,96.30
2018-01-06T08:07:20.432Z,96.20
2018-01-06T08:09:47.843Z,96.20
2018-01-06T08:12:15.274Z,96.10
2018-01-06T08:14:43.471Z,96.20
2018-01-06T08:17:10.889Z,96.20
2018-01-06T08:19:38.315Z,96.20
2018-01-06T08:22:06.504Z,96.30
2018-01-06T08:24:33.927Z,96.20
2018-01-06T08:27:01.357Z,96.30
2018-01-06T08:29:29.543Z,95.80
2018-01-06T08:31:57.000Z,95.80
2018-01-06T08:34:24.400Z,95.90
2018-01-06T08:36:52.602Z,95.70
2018-01-06T08:39:20.028Z,95.70
2018-01-06T08:41:47.451Z,95.70
2018-01-06T08:44:14.879Z,95.60
2018-01-06T08:46:43.082Z,95.50
2018-01-06T08:49:10.496Z,95.50
2018-01-06T08:51:37.939Z,95.20
2018-01-06T08:54:05.357Z,95.20
2018-01-06T08:56:33.547Z,95.50
2018-01-06T08:59:00.980Z,95.40
2018-01-06T09:01:28.399Z,95.40
2018-01-06T09:03:56.600Z,95.70
2018-01-06T09:06:24.032Z,95.70
2018-01-06T09:08:51.455Z,95.90
2018-01-06T09:11:18.875Z,95.90
2018-01-06T09:13:46.308Z,96.10
2018-01-06T09:16:15.284Z,96.00
2018-01-06T09:18:42.677Z,96.00
2018-01-06T09:21:10.103Z,96.10
2018-01-06T09:23:37.523Z,95.80
2018-01-06T09:26:05.716Z,95.80
2018-01-06T09:28:33.152Z,95.70
2018-01-06T09:31:01.328Z,95.70
2018-01-06T09:33:28.751Z,95.70
2018-01-06T09:35:56.171Z,95.70
2018-01-06T09:38:24.380Z,95.40
2018-01-06T09:40:51.824Z,95.40
2018-01-06T09:43:19.252Z,94.90
2018-01-06T09:45:46.686Z,94.90
2018-01-06T09:48:14.103Z,94.80
2018-01-06T09:50:41.528Z,94.60
2018-01-06T09:53:09.732Z,94.20
2018-01-06T09:55:37.156Z,94.20
2018-01-06T09:58:04.582Z,93.80
2018-01-06T10:00:32.788Z,93.40
2018-01-06T10:03:00.228Z,93.70
2018-01-06T10:05:27.729Z,93.60
2018-01-06T10:07:55.121Z,93.00
2018-01-06T10:10:22.540Z,92.70
2018-01-06T10:12:49.967Z,92.90
2018-01-06T10:15:17.386Z,92.00
2018-01-06T10:17:45.572Z,92.30
2018-01-06T10:20:12.996Z,92.20
2018-01-06T10:22:40.415Z,92.70
2018-01-06T10:25:07.848Z,92.90
2018-01-06T10:27:35.275Z,93.30
2018-01-06T10:30:02.700Z,92.60
2018-01-06T10:32:30.118Z,92.00
2018-01-06T10:34:57.552Z,91.50
2018-01-06T10:37:24.967Z,91.10
2018-01-06T10:39:53.164Z,91.20
2018-01-06T10:42:20.628Z,91.20
2018-01-06T10:44:48.051Z,89.70
2018-01-06T10:47:15.471Z,89.80
2018-01-06T10:49:42.950Z,89.10
2018-01-06T10:52:10.381Z,88.90
2018-01-06T10:54:37.875Z,87.50
2018-01-06T10:57:05.276Z,86.70
2018-01-06T10:59:32.695Z,86.10
2018-01-06T11:02:05.976Z,86.50
2018-01-06T11:04:33.435Z,88.60
2018-01-06T11:07:00.883Z,88.10
2018-01-06T11:09:28.295Z,88.70
2018-01-06T11:11:55.711Z,89.80
2018-01-06T11:14:23.904Z,89.60
2018-01-06T11:16:51.324Z,89.50
2018-01-06T11:19:18.751Z,90.30
2018-01-06T11:21:46.951Z,90.50
2018-01-06T11:24:14.380Z,90.50
2018-01-06T11:26:41.844Z,90.30
2018-01-06T11:29:09.264Z,90.40
2018-01-06T11:31:36.683Z,90.00
2018-01-06T11:34:04.868Z,89.90
2018-01-06T11:36:32.297Z,89.90
2018-01-06T11:38:59.718Z,89.60
2018-01-06T11:41:27.912Z,85.70
2018-01-06T11:43:55.379Z,85.70
2018-01-06T11:46:22.822Z,84.20
2018-01-06T11:48:50.257Z,85.30
2018-01-06T11:51:17.690Z,83.80
2018-01-06T11:53:45.139Z,82.00
2018-01-06T11:56:12.584Z,84.20
2018-01-06T11:58:40.008Z,83.00
2018-01-06T12:01:07.436Z,84.40
2018-01-06T12:03:34.860Z,83.00
2018-01-06T12:06:03.048Z,83.60
2018-01-06T12:08:30.472Z,83.60
2018-01-06T12:10:57.887Z,85.30
2018-01-06T12:13:26.073Z,82.90
2018-01-06T12:15:53.499Z,82.70
2018-01-06T12:18:21.702Z,83.20
2018-01-06T12:20:49.176Z,83.20
2018-01-06T12:23:16.543Z,81.60
2018-01-06T12:25:44.736Z,79.50
2018-01-06T12:28:12.156Z,79.40
2018-01-06T12:30:39.586Z,78.80
2018-01-06T12:33:07.791Z,75.20
2018-01-06T12:35:35.203Z,75.20
2018-01-06T12:38:02.684Z,75.70
2018-01-06T12:40:30.108Z,74.40
2018-01-06T12:42:57.528Z,76.20
2018-01-06T12:45:24.951Z,77.50
2018-01-06T12:47:53.153Z,80.60
2018-01-06T12:50:20.560Z,81.40
2018-01-06T12:52:48.049Z,81.20
2018-01-06T12:55:15.472Z,81.50
2018-01-06T12:57:42.926Z,81.70
2018-01-06T13:00:10.316Z,80.20
2018-01-06T13:02:38.503Z,81.20
2018-01-06T13:05:05.923Z,81.00
2018-01-06T13:07:33.358Z,82.00
2018-01-06T13:10:01.538Z,83.30
2018-01-06T13:12:28.957Z,83.30
2018-01-06T13:14:57.140Z,82.60
2018-01-06T13:17:24.567Z,82.50
2018-01-06T13:19:51.987Z,83.60
2018-01-06T13:22:20.209Z,85.30
2018-01-06T13:24:47.615Z,85.10
2018-01-06T13:27:15.103Z,84.90
2018-01-06T13:29:42.512Z,84.40
2018-01-06T13:32:09.931Z,84.40
2018-01-06T13:34:37.408Z,84.00
2018-01-06T13:37:04.827Z,84.70
2018-01-06T13:39:32.302Z,83.60
2018-01-06T13:41:59.748Z,85.40
2018-01-06T13:44:27.287Z,85.50
2018-01-06T13:46:54.710Z,85.60
2018-01-06T13:49:22.173Z,85.80
2018-01-06T13:51:49.596Z,86.30
2018-01-06T13:54:17.022Z,86.30
2018-01-06T13:56:44.435Z,86.10
2018-01-06T13:59:12.673Z,86.20
2018-01-06T14:01:40.083Z,86.10
2018-01-06T14:04:07.550Z,86.30
2018-01-06T14:06:34.960Z,86.50
2018-01-06T14:09:02.421Z,86.60
2018-01-06T14:11:29.848Z,86.00
2018-01-06T14:13:57.263Z,85.10
2018-01-06T14:16:24.741Z,84.80
2018-01-06T14:18:52.188Z,83.90
2018-01-06T14:21:19.596Z,83.20
2018-01-06T14:23:47.022Z,82.60
2018-01-06T14:26:15.222Z,82.20
2018-01-06T14:28:42.639Z,82.00
2018-01-06T14:31:10.100Z,81.10
2018-01-06T14:33:37.493Z,82.10
2018-01-06T14:36:05.675Z,83.60
2018-01-06T14:38:33.095Z,83.50
2018-01-06T14:41:01.304Z,83.30
2018-01-06T14:43:28.728Z,83.20
2018-01-06T14:45:56.193Z,83.90
2018-01-06T14:48:23.600Z,83.80
2018-01-06T14:50:51.067Z,84.10
2018-01-06T14:53:18.476Z,84.70
2018-01-06T14:55:45.901Z,84.40
2018-01-06T14:58:14.133Z,85.40
2018-01-06T15:00:41.581Z,85.30
2018-01-06T15:03:08.988Z,85.70
2018-01-06T15:05:36.432Z,87.40
2018-01-06T15:08:03.887Z,88.60
2018-01-06T15:10:31.283Z,88.30
2018-01-06T15:12:58.754Z,88.60
2018-01-06T15:15:26.173Z,88.80
2018-01-06T15:17:53.587Z,88.00
2018-01-06T15:20:21.767Z,87.70
2018-01-06T15:22:49.179Z,87.60
2018-01-06T15:25:16.604Z,88.50
2018-01-06T15:27:44.021Z,88.60
2018-01-06T15:30:11.432Z,88.50
2018-01-06T15:32:38.844Z,89.70
2018-01-06T15:35:07.115Z,90.00
2018-01-06T15:37:34.521Z,89.90
2018-01-06T15:40:02.000Z,90.50
2018-01-06T15:42:29.359Z,90.40
2018-01-06T15:44:56.818Z,90.50
2018-01-06T15:47:24.215Z,90.80
2018-01-06T15:49:52.400Z,91.20
2018-01-06T15:52:19.823Z,91.10
2018-01-06T15:54:48.010Z,91.90
2018-01-06T15:57:15.465Z,91.90
2018-01-06T15:59:42.914Z,92.20
2018-01-06T16:02:10.328Z,92.40
2018-01-06T16:04:37.783Z,92.60
2018-01-06T16:07:05.189Z,92.60
2018-01-06T16:09:33.375Z,92.70
2018-01-06T16:12:00.794Z,92.70
2018-01-06T16:14:29.008Z,92.80
2018-01-06T16:16:56.452Z,92.70
2018-01-06T16:19:23.958Z,92.90
2018-01-06T16:21:51.339Z,93.20
2018-01-06T16:24:18.768Z,93.40
2018-01-06T16:26:46.204Z,93.40
2018-01-06T16:29:13.623Z,93.80
2018-01-06T16:31:41.043Z,94.40
2018-01-06T16:34:09.253Z,94.00
2018-01-06T16:36:36.725Z,94.00
2018-01-06T16:39:04.142Z,94.00
2018-01-06T16:41:31.615Z,93.90
2018-01-06T16:43:59.829Z,93.70
2018-01-06T16:46:27.303Z,93.70
2018-01-06T16:48:54.754Z,93.70
2018-01-06T16:51:22.172Z,93.40
2018-01-06T16:53:49.605Z,93.30
2018-01-06T16:56:17.074Z,93.50
2018-01-06T16:58:44.492Z,93.70
2018-01-06T17:01:11.958Z,93.90
2018-01-06T17:03:40.194Z,93.90
2018-01-06T17:06:07.649Z,93.90
2018-01-06T17:08:35.059Z,94.00
2018-01-06T17:11:02.530Z,94.20
2018-01-06T17:13:29.948Z,94.40
2018-01-06T17:15:57.372Z,94.40
2018-01-06T17:18:24.794Z,94.50
2018-01-06T17:20:53.027Z,94.60
2018-01-06T17:23:20.457Z,94.50
2018-01-06T17:25:47.877Z,94.70
2018-01-06T17:28:15.307Z,95.10
2018-01-06T17:30:42.792Z,95.10
2018-01-06T17:33:10.248Z,95.30
2018-01-06T17:35:39.168Z,95.50
2018-01-06T17:38:06.684Z,95.50
2018-01-06T17:40:34.910Z,95.40
2018-01-06T17:43:02.320Z,95.40
2018-01-06T17:45:29.786Z,95.70
2018-01-06T17:47:57.200Z,95.80
2018-01-06T17:50:24.661Z,95.70
2018-01-06T17:52:52.088Z,95.70
2018-01-06T17:55:19.501Z,95.50
2018-01-06T17:57:46.971Z,95.50
2018-01-06T18:00:14.380Z,95.70
2018-01-06T18:02:41.847Z,95.80
2018-01-06T18:05:09.268Z,95.90
2018-01-06T18:07:36.691Z,95.70
2018-01-06T18:10:04.926Z,97.20
2018-01-06T18:12:32.341Z,97.30
2018-01-06T18:14:59.806Z,97.30
2018-01-06T18:17:27.224Z,97.40
2018-01-06T18:19:54.685Z,98.00
2018-01-06T18:22:22.141Z,96.50
2018-01-06T18:24:49.601Z,96.50
2018-01-06T18:27:17.776Z,95.70
2018-01-06T18:29:45.244Z,95.90
2018-01-06T18:32:12.659Z,95.70
2018-01-06T18:34:40.193Z,96.30
2018-01-06T18:37:08.383Z,96.30
2018-01-06T18:39:35.841Z,96.30
2018-01-06T18:42:03.302Z,96.30
2018-01-06T18:44:31.287Z,96.40
2018-01-06T18:46:59.472Z,96.50
2018-01-06T18:49:26.960Z,96.40
2018-01-06T18:51:54.419Z,96.30
2018-01-06T18:54:21.831Z,96.10
2018-01-06T18:56:49.303Z,96.20
2018-01-06T18:59:16.767Z,96.40
2018-01-06T19:01:44.995Z,96.40
2018-01-06T19:04:12.464Z,96.40
2018-01-06T19:06:40.682Z,96.30
2018-01-06T19:09:08.140Z,96.30
2018-01-06T19:11:35.603Z,96.30
2018-01-06T19:14:03.785Z,96.40
2018-01-06T19:16:31.262Z,96.40
2018-01-06T19:18:58.725Z,96.60
2018-01-06T19:21:26.175Z,96.40
2018-01-06T19:23:55.092Z,96.40
2018-01-06T19:26:22.566Z,96.40
2018-01-06T19:28:50.055Z,96.50
2018-01-06T19:31:18.262Z,96.30
2018-01-06T19:33:45.680Z,96.20
2018-01-06T19:36:13.159Z,96.20
2018-01-06T19:38:40.572Z,96.20
2018-01-06T19:41:08.057Z,96.20
2018-01-06T19:43:35.514Z,96.20
2018-01-06T19:46:03.742Z,96.20
2018-01-06T19:48:31.206Z,96.10
2018-01-06T19:50:58.662Z,96.20
2018-01-06T19:53:26.150Z,96.10
2018-01-06T19:55:53.604Z,96.10
2018-01-06T19:58:21.072Z,95.80
2018-01-06T20:00:48.539Z,95.70
2018-01-06T20:03:16.772Z,95.80
2018-01-06T20:05:44.231Z,95.80
2018-01-06T20:08:12.459Z,96.00
2018-01-06T20:10:39.923Z,96.00
2018-01-06T20:13:07.388Z,95.90
2018-01-06T20:15:35.627Z,96.00
2018-01-06T20:18:03.070Z,96.00
2018-01-06T20:20:30.535Z,95.90
2018-01-06T20:22:58.749Z,95.90
2018-01-06T20:25:26.216Z,95.90
2018-01-06T20:27:53.671Z,95.80
2018-01-06T20:30:21.903Z,95.60
2018-01-06T20:32:49.379Z,95.60
2018-01-06T20:35:17.607Z,95.40
2018-01-06T20:37:45.078Z,95.40
2018-01-06T20:40:13.341Z,95.70
2018-01-06T20:42:41.546Z,95.50
2018-01-06T20:45:09.014Z,95.50
2018-01-06T20:47:37.240Z,95.50
2018-01-06T20:50:04.738Z,95.40
2018-01-06T20:52:32.967Z,95.40
2018-01-06T20:55:00.423Z,95.40
2018-01-06T20:57:27.879Z,95.30
2018-01-06T20:59:56.114Z,95.70
2018-01-06T21:02:23.606Z,95.30
2018-01-06T21:04:51.070Z,95.50
2018-01-06T21:07:18.527Z,95.60
2018-01-06T21:09:46.019Z,95.70
2018-01-06T21:12:14.284Z,96.40
2018-01-06T21:14:42.515Z,96.10
2018-01-06T21:17:09.981Z,96.10
2018-01-06T21:19:38.215Z,95.90
2018-01-06T21:22:05.675Z,95.90
2018-01-06T21:24:33.899Z,95.80
2018-01-06T21:27:01.363Z,95.80
2018-01-06T21:29:28.819Z,95.90
2018-01-06T21:31:57.055Z,96.20
2018-01-06T21:34:24.519Z,96.00
2018-01-06T21:36:51.975Z,96.00
2018-01-06T21:39:20.242Z,96.30
2018-01-06T21:41:48.472Z,96.60
2018-01-06T21:44:15.930Z,96.50
2018-01-06T21:46:44.150Z,96.40
2018-01-06T21:49:11.615Z,96.30
2018-01-06T21:51:39.071Z,96.30
2018-01-06T21:54:06.531Z,96.30
2018-01-06T21:56:33.990Z,96.40
2018-01-06T21:59:01.446Z,96.40
2018-01-06T22:01:28.915Z,96.40
2018-01-06T22:03:56.390Z,97.40
2018-01-06T22:06:24.611Z,98.60
2018-01-06T22:08:52.066Z,98.30
2018-01-06T22:11:19.617Z,98.20
2018-01-06T22:13:47.072Z,98.20
2018-01-06T22:16:15.310Z,96.80
2018-01-06T22:18:42.764Z,96.70
2018-01-06T22:21:11.734Z,95.70
2018-01-06T22:23:39.206Z,95.70
2018-01-06T22:26:07.435Z,96.00
2018-01-06T22:28:34.901Z,96.00
2018-01-06T22:31:03.130Z,96.00
2018-01-06T22:33:30.599Z,96.00
2018-01-06T22:35:58.827Z,96.10
2018-01-06T22:38:26.286Z,96.00
2018-01-06T22:40:53.750Z,96.20
2018-01-06T22:43:22.006Z,96.40
2018-01-06T22:45:49.450Z,96.40
2018-01-06T22:48:17.683Z,99.80
2018-01-06T22:50:45.148Z,99.80
2018-01-06T22:53:13.383Z,99.90
2018-01-06T22:55:40.838Z,99.90
2018-01-06T22:58:09.067Z,99.70
2018-01-06T23:00:39.876Z,99.70
2018-01-06T23:03:07.335Z,99.80
2018-01-06T23:05:34.791Z,99.70
2018-01-06T23:08:02.257Z,99.70
2018-01-06T23:10:30.492Z,99.90
2018-01-06T23:12:57.959Z,99.80
2018-01-06T23:15:26.915Z,99.90
2018-01-06T23:17:54.387Z,99.90
2018-01-06T23:20:22.602Z,99.90
2018-01-06T23:22:50.067Z,99.90
2018-01-06T23:25:17.531Z,99.90
2018-01-06T23:27:45.759Z,99.90
2018-01-06T23:30:13.227Z,99.90
2018-01-06T23:32:41.454Z,99.90
2018-01-06T23:35:08.911Z,99.90
2018-01-06T23:37:36.371Z,99.90
2018-01-06T23:40:04.603Z,99.90
2018-01-06T23:42:32.068Z,99.90
2018-01-06T23:44:59.512Z,99.80
2018-01-06T23:47:27.739Z,99.70
2018-01-06T23:49:55.195Z,99.70
2018-01-06T23:52:22.650Z,99.30
2018-01-06T23:54:50.886Z,99.60
2018-01-06T23:57:18.325Z,99.80
2018-01-06T23:59:45.807Z,99.90
